createdAt,value
2017-05-12T04:44:05.520Z,376
2017-05-12T04:44:31.021Z,384
2017-05-12T04:44:56.532Z,388
2017-05-12T04:45:22.001Z,404
2017-05-12T04:45:47.459Z,412
2017-05-12T04:46:12.938Z,424
2017-05-12T04:46:38.453Z,440
2017-05-12T04:47:03.879Z,456
2017-05-12T04:47:29.351Z,480
2017-05-12T04:47:54.814Z,504
2017-05-12T04:48:20.395Z,524
2017-05-12T04:48:45.741Z,544
2017-05-12T04:49:11.218Z,564
2017-05-12T04:49:36.680Z,576
2017-05-12T04:50:02.170Z,588
2017-05-12T04:50:27.669Z,600
2017-05-12T04:50:53.124Z,608
2017-05-12T04:51:18.603Z,620
2017-05-12T04:51:44.050Z,632
2017-05-12T04:52:09.532Z,644
2017-05-12T04:52:34.990Z,656
2017-05-12T04:53:00.448Z,668
2017-05-12T04:53:25.910Z,688
2017-05-12T04:53:51.387Z,708
2017-05-12T04:54:16.888Z,728
2017-05-12T04:54:42.358Z,748
2017-05-12T04:55:07.778Z,764
2017-05-12T04:55:33.237Z,776
2017-05-12T04:55:58.745Z,784
2017-05-12T04:56:24.196Z,792
2017-05-12T04:56:49.690Z,780
2017-05-12T04:57:15.141Z,792
2017-05-12T04:57:40.613Z,792
2017-05-12T04:58:06.077Z,816
2017-05-12T04:58:31.529Z,832
2017-05-12T04:58:57.007Z,844
2017-05-12T04:59:22.565Z,860
2017-05-12T04:59:48.066Z,868
2017-05-12T05:00:13.531Z,876
2017-05-12T05:00:38.994Z,888
2017-05-12T05:01:04.508Z,892
2017-05-12T05:01:29.949Z,908
2017-05-12T05:01:55.420Z,916
2017-05-12T05:02:20.956Z,952
2017-05-12T05:02:46.368Z,968
2017-05-12T05:03:11.833Z,988
2017-05-12T05:03:37.314Z,996
2017-05-12T05:04:02.755Z,1016
2017-05-12T05:04:28.239Z,1036
2017-05-12T05:04:53.677Z,1056
2017-05-12T05:05:19.198Z,1068
2017-05-12T05:05:44.650Z,1060
2017-05-12T05:06:10.099Z,1056
2017-05-12T05:06:35.588Z,1060
2017-05-12T05:07:01.053Z,1080
2017-05-12T05:07:26.522Z,1100
2017-05-12T05:07:52.033Z,1124
2017-05-12T05:08:17.533Z,1144
2017-05-12T05:08:43.024Z,1164
2017-05-12T05:09:08.533Z,1184
2017-05-12T05:09:33.986Z,1200
2017-05-12T05:09:59.460Z,1220
2017-05-12T05:10:24.932Z,1236
2017-05-12T05:10:50.419Z,1240
2017-05-12T05:11:15.910Z,1236
2017-05-12T05:11:41.426Z,1232
2017-05-12T05:12:06.884Z,1224
2017-05-12T05:12:32.382Z,1216
2017-05-12T05:12:57.858Z,1212
2017-05-12T05:13:23.336Z,1244
2017-05-12T05:13:48.794Z,1300
2017-05-12T05:14:14.261Z,1384
2017-05-12T05:14:39.783Z,1496
2017-05-12T05:15:05.268Z,1600
2017-05-12T05:15:30.805Z,1680
2017-05-12T05:15:56.263Z,1748
2017-05-12T05:16:21.768Z,1816
2017-05-12T05:16:47.286Z,1876
2017-05-12T05:17:12.742Z,1924
2017-05-12T05:17:38.238Z,1936
2017-05-12T05:18:03.721Z,1932
2017-05-12T05:18:29.215Z,1908
2017-05-12T05:18:54.676Z,1900
2017-05-12T05:19:20.157Z,1908
2017-05-12T05:19:45.632Z,1912
2017-05-12T05:20:11.096Z,1920
2017-05-12T05:20:36.601Z,1924
2017-05-12T05:21:02.087Z,1912
2017-05-12T05:21:27.559Z,1884
2017-05-12T05:21:53.058Z,1840
2017-05-12T05:22:18.516Z,1776
2017-05-12T05:22:44.019Z,1684
2017-05-12T05:23:09.492Z,1592
2017-05-12T05:23:34.958Z,1504
2017-05-12T05:24:00.445Z,1420
2017-05-12T05:24:25.929Z,1320
2017-05-12T05:24:51.416Z,1244
2017-05-12T05:25:16.915Z,1168
2017-05-12T05:25:42.402Z,1132
2017-05-12T05:26:07.875Z,1132
2017-05-12T05:26:33.362Z,1140
2017-05-12T05:26:58.829Z,1144
2017-05-12T05:27:24.342Z,1148
2017-05-12T05:27:49.810Z,1148
2017-05-12T05:28:15.299Z,1136
2017-05-12T05:28:40.792Z,1136
2017-05-12T05:29:06.279Z,1136
2017-05-12T05:29:31.834Z,1144
2017-05-12T05:29:57.282Z,1152
2017-05-12T05:30:22.790Z,1172
2017-05-12T05:30:48.255Z,1188
2017-05-12T05:31:13.742Z,1204
2017-05-12T05:31:39.212Z,1224
2017-05-12T05:32:04.733Z,1220
2017-05-12T05:32:30.214Z,1268
2017-05-12T05:32:55.701Z,1312
2017-05-12T05:33:21.172Z,1364
2017-05-12T05:33:46.655Z,1404
2017-05-12T05:34:12.132Z,1444
2017-05-12T05:34:37.636Z,1500
2017-05-12T05:35:03.124Z,1560
2017-05-12T05:35:28.620Z,1608
2017-05-12T05:35:54.098Z,1668
2017-05-12T05:36:19.649Z,1724
2017-05-12T05:36:45.178Z,1748
2017-05-12T05:37:10.568Z,1756
2017-05-12T05:37:36.051Z,1748
2017-05-12T05:38:01.537Z,1744
2017-05-12T05:38:27.021Z,1760
2017-05-12T05:38:52.510Z,1780
2017-05-12T05:39:17.974Z,1808
2017-05-12T05:39:43.451Z,1832
2017-05-12T05:40:08.951Z,1860
2017-05-12T05:40:34.431Z,1888
2017-05-12T05:40:59.900Z,1920
2017-05-12T05:41:25.378Z,1952
2017-05-12T05:41:50.870Z,1992
2017-05-12T05:42:16.343Z,2020
2017-05-12T05:42:41.800Z,2040
2017-05-12T05:43:07.262Z,2052
2017-05-12T05:43:32.731Z,2080
2017-05-12T05:43:58.212Z,2104
2017-05-12T05:44:23.680Z,2152
2017-05-12T05:44:49.175Z,2216
2017-05-12T05:45:14.651Z,2280
2017-05-12T05:45:40.112Z,2348
2017-05-12T05:46:05.607Z,2412
2017-05-12T05:46:31.075Z,2464
2017-05-12T05:46:56.557Z,2516
2017-05-12T05:47:22.015Z,2560
2017-05-12T05:47:47.496Z,2592
2017-05-12T05:48:12.976Z,2612
2017-05-12T05:48:38.451Z,2616
2017-05-12T05:49:03.924Z,2604
2017-05-12T05:49:29.401Z,2584
2017-05-12T05:49:54.878Z,2552
2017-05-12T05:50:20.328Z,2524
2017-05-12T05:50:45.830Z,2496
2017-05-12T05:51:11.276Z,2476
2017-05-12T05:51:36.768Z,2460
2017-05-12T05:52:02.242Z,2448
2017-05-12T05:52:27.728Z,2440
2017-05-12T05:52:53.184Z,2436
2017-05-12T05:53:18.655Z,2432
2017-05-12T05:53:44.153Z,2440
2017-05-12T05:54:09.634Z,2432
2017-05-12T05:54:35.116Z,2420
2017-05-12T05:55:00.601Z,2396
2017-05-12T05:55:26.058Z,2344
2017-05-12T05:55:51.557Z,2276
2017-05-12T05:56:17.015Z,2212
2017-05-12T05:56:42.516Z,2188
2017-05-12T05:57:08.006Z,2192
2017-05-12T05:57:33.478Z,2184
2017-05-12T05:57:58.930Z,2168
2017-05-12T05:58:24.406Z,2152
2017-05-12T05:58:49.889Z,2128
2017-05-12T05:59:15.376Z,2100
2017-05-12T05:59:40.861Z,2052
2017-05-12T06:00:06.299Z,1980
2017-05-12T06:00:31.759Z,1904
2017-05-12T06:00:57.262Z,1840
2017-05-12T06:01:22.790Z,1788
2017-05-12T06:01:48.204Z,1780
2017-05-12T06:02:13.685Z,1784
2017-05-12T06:02:39.172Z,1824
2017-05-12T06:03:04.644Z,1888
2017-05-12T06:03:30.102Z,1964
2017-05-12T06:03:55.575Z,2072
2017-05-12T06:04:21.049Z,2192
2017-05-12T06:04:46.556Z,2312
2017-05-12T06:05:12.025Z,2420
2017-05-12T06:05:37.503Z,2508
2017-05-12T06:06:02.993Z,2544
2017-05-12T06:06:28.487Z,2536
2017-05-12T06:06:53.960Z,2492
2017-05-12T06:07:19.453Z,2444
2017-05-12T06:07:44.933Z,2388
2017-05-12T06:08:10.418Z,2304
2017-05-12T06:08:35.915Z,2220
2017-05-12T06:09:01.403Z,2132
2017-05-12T06:09:26.914Z,2056
2017-05-12T06:09:52.393Z,2012
2017-05-12T06:10:17.842Z,1984
2017-05-12T06:10:43.332Z,1968
2017-05-12T06:11:08.823Z,1936
2017-05-12T06:11:34.314Z,1900
2017-05-12T06:11:59.817Z,1908
2017-05-12T06:12:25.301Z,1936
2017-05-12T06:12:50.792Z,2032
2017-05-12T06:13:16.277Z,2164
2017-05-12T06:13:41.731Z,2348
2017-05-12T06:14:07.208Z,2532
2017-05-12T06:14:32.704Z,2688
2017-05-12T06:14:58.180Z,2832
2017-05-12T06:15:23.673Z,2948
2017-05-12T06:15:49.155Z,3040
2017-05-12T06:16:14.674Z,3100
2017-05-12T06:16:40.169Z,3128
2017-05-12T06:17:05.655Z,3132
2017-05-12T06:17:31.150Z,3100
2017-05-12T06:17:56.616Z,3044
2017-05-12T06:18:22.086Z,2972
2017-05-12T06:18:47.571Z,2904
2017-05-12T06:19:13.054Z,2836
2017-05-12T06:19:38.573Z,2776
2017-05-12T06:20:04.032Z,2712
2017-05-12T06:20:29.504Z,2640
2017-05-12T06:20:54.967Z,2568
2017-05-12T06:21:20.429Z,2504
2017-05-12T06:21:45.914Z,2444
2017-05-12T06:22:11.373Z,2404
2017-05-12T06:22:36.877Z,2384
2017-05-12T06:23:02.348Z,2400
2017-05-12T06:23:27.843Z,2424
2017-05-12T06:23:53.324Z,2452
2017-05-12T06:24:18.821Z,2464
2017-05-12T06:24:44.307Z,2476
2017-05-12T06:25:09.804Z,2488
2017-05-12T06:25:35.292Z,2496
2017-05-12T06:26:00.785Z,2508
2017-05-12T06:26:26.250Z,2532
2017-05-12T06:26:51.706Z,2524
2017-05-12T06:27:17.166Z,2532
2017-05-12T06:27:42.645Z,2492
2017-05-12T06:28:08.147Z,2420
2017-05-12T06:28:33.661Z,2336
2017-05-12T06:28:59.149Z,2236
2017-05-12T06:29:24.666Z,2164
2017-05-12T06:29:50.148Z,2124
2017-05-12T06:30:15.625Z,2096
2017-05-12T06:30:41.109Z,2044
2017-05-12T06:31:06.570Z,1952
2017-05-12T06:31:32.024Z,1856
2017-05-12T06:31:57.474Z,1784
2017-05-12T06:32:22.944Z,1720
2017-05-12T06:32:48.458Z,1688
2017-05-12T06:33:13.925Z,1680
2017-05-12T06:33:39.404Z,1644
2017-05-12T06:34:04.856Z,1604
2017-05-12T06:34:30.319Z,1636
2017-05-12T06:34:55.792Z,1736
2017-05-12T06:35:21.280Z,1860
2017-05-12T06:35:46.715Z,1976
2017-05-12T06:36:12.185Z,2076
2017-05-12T06:36:37.656Z,2148
2017-05-12T06:37:03.130Z,2192
2017-05-12T06:37:28.607Z,2256
2017-05-12T06:37:54.097Z,2324
2017-05-12T06:38:19.588Z,2380
2017-05-12T06:38:45.057Z,2408
2017-05-12T06:39:10.524Z,2444
2017-05-12T06:39:36.013Z,2416
2017-05-12T06:40:01.474Z,2340
2017-05-12T06:40:26.925Z,2252
2017-05-12T06:40:52.412Z,2236
2017-05-12T06:41:17.901Z,2176
2017-05-12T06:41:43.369Z,2116
2017-05-12T06:42:08.839Z,2108
2017-05-12T06:42:34.327Z,2216
2017-05-12T06:42:59.798Z,2344
2017-05-12T06:43:25.308Z,2468
2017-05-12T06:43:50.756Z,2564
2017-05-12T06:44:16.220Z,2668
2017-05-12T06:44:41.700Z,2732
2017-05-12T06:45:07.179Z,2768
2017-05-12T06:45:32.645Z,2800
2017-05-12T06:45:58.115Z,2808
2017-05-12T06:46:23.581Z,2800
2017-05-12T06:46:49.036Z,2784
2017-05-12T06:47:14.510Z,2764
2017-05-12T06:47:39.992Z,2748
2017-05-12T06:48:05.459Z,2732
2017-05-12T06:48:30.929Z,2724
2017-05-12T06:48:56.415Z,2720
2017-05-12T06:49:21.896Z,2728
2017-05-12T06:49:47.390Z,2712
2017-05-12T06:50:12.848Z,2704
2017-05-12T06:50:38.314Z,2716
2017-05-12T06:51:03.817Z,2776
2017-05-12T06:51:29.298Z,2880
2017-05-12T06:51:54.853Z,2960
2017-05-12T06:52:20.256Z,3032
2017-05-12T06:52:45.724Z,3152
2017-05-12T06:53:11.199Z,3304
2017-05-12T06:53:36.691Z,3412
2017-05-12T06:54:02.178Z,3472
2017-05-12T06:54:27.662Z,3496
2017-05-12T06:54:53.142Z,3500
2017-05-12T06:55:18.610Z,3512
2017-05-12T06:55:44.084Z,3504
2017-05-12T06:56:09.586Z,3504
2017-05-12T06:56:35.032Z,3472
2017-05-12T06:57:00.519Z,3436
2017-05-12T06:57:25.982Z,3392
2017-05-12T06:57:51.461Z,3384
2017-05-12T06:58:16.970Z,3412
2017-05-12T06:58:42.439Z,3424
2017-05-12T06:59:07.920Z,3448
2017-05-12T06:59:33.405Z,3480
2017-05-12T06:59:58.856Z,3484
2017-05-12T07:00:24.338Z,3444
2017-05-12T07:00:49.801Z,3408
2017-05-12T07:01:15.250Z,3444
2017-05-12T07:01:40.734Z,3508
2017-05-12T07:02:06.222Z,3628
2017-05-12T07:02:31.690Z,3760
2017-05-12T07:02:57.179Z,3888
2017-05-12T07:03:22.674Z,4016
2017-05-12T07:03:48.122Z,4084
2017-05-12T07:04:13.634Z,4104
2017-05-12T07:04:39.119Z,4056
2017-05-12T07:05:04.567Z,3920
2017-05-12T07:05:30.065Z,4008
2017-05-12T07:05:55.515Z,4024
2017-05-12T07:06:20.995Z,4060
2017-05-12T07:06:46.477Z,4168
2017-05-12T07:07:11.937Z,4368
2017-05-12T07:07:37.443Z,4572
2017-05-12T07:08:02.926Z,4740
2017-05-12T07:08:28.397Z,4840
2017-05-12T07:08:53.879Z,4884
2017-05-12T07:09:19.371Z,4840
2017-05-12T07:09:44.853Z,4760
2017-05-12T07:10:10.334Z,4664
2017-05-12T07:10:35.790Z,4532
2017-05-12T07:11:01.312Z,4416
2017-05-12T07:11:26.775Z,4332
2017-05-12T07:11:52.302Z,4264
2017-05-12T07:12:17.767Z,4276
2017-05-12T07:12:43.227Z,4312
2017-05-12T07:13:08.720Z,4328
2017-05-12T07:13:34.242Z,4348
2017-05-12T07:13:59.683Z,4332
2017-05-12T07:14:25.159Z,4320
2017-05-12T07:14:50.621Z,4296
2017-05-12T07:15:16.107Z,4284
2017-05-12T07:15:41.562Z,4288
2017-05-12T07:16:07.093Z,4296
2017-05-12T07:16:32.582Z,4336
2017-05-12T07:16:58.037Z,4440
2017-05-12T07:17:23.520Z,4580
2017-05-12T07:17:49.008Z,4728
2017-05-12T07:18:14.481Z,4856
2017-05-12T07:18:39.971Z,4980
2017-05-12T07:19:05.436Z,5060
2017-05-12T07:19:30.911Z,5080
2017-05-12T07:19:56.401Z,5068
2017-05-12T07:20:21.869Z,5044
2017-05-12T07:20:47.364Z,4984
2017-05-12T07:21:12.818Z,4920
2017-05-12T07:21:38.282Z,4880
2017-05-12T07:22:03.758Z,4836
2017-05-12T07:22:29.211Z,4780
2017-05-12T07:22:54.692Z,4696
2017-05-12T07:23:20.164Z,4568
2017-05-12T07:23:45.638Z,4452
2017-05-12T07:24:11.136Z,4372
2017-05-12T07:24:36.617Z,4340
2017-05-12T07:25:02.101Z,4332
2017-05-12T07:25:27.547Z,4352
2017-05-12T07:25:53.031Z,4376
2017-05-12T07:26:18.484Z,4400
2017-05-12T07:26:43.977Z,4424
2017-05-12T07:27:09.480Z,4440
2017-05-12T07:27:34.930Z,4460
2017-05-12T07:28:00.401Z,4464
2017-05-12T07:28:25.876Z,4476
2017-05-12T07:28:51.349Z,4500
2017-05-12T07:29:16.877Z,4520
2017-05-12T07:29:42.347Z,4512
2017-05-12T07:30:07.837Z,4508
2017-05-12T07:30:33.313Z,4496
2017-05-12T07:30:58.811Z,4492
2017-05-12T07:31:24.301Z,4536
2017-05-12T07:31:49.816Z,4620
2017-05-12T07:32:15.290Z,4684
2017-05-12T07:32:40.774Z,4668
2017-05-12T07:33:06.248Z,4656
2017-05-12T07:33:31.718Z,4692
2017-05-12T07:33:57.185Z,4796
2017-05-12T07:34:22.688Z,4892
2017-05-12T07:34:48.167Z,4908
2017-05-12T07:35:13.632Z,4816
2017-05-12T07:35:39.125Z,4640
2017-05-12T07:36:04.604Z,4372
2017-05-12T07:36:30.076Z,4112
2017-05-12T07:36:55.558Z,3920
2017-05-12T07:37:21.026Z,3816
2017-05-12T07:37:46.490Z,3720
2017-05-12T07:38:11.989Z,3684
2017-05-12T07:38:37.463Z,3704
2017-05-12T07:39:02.941Z,3752
2017-05-12T07:39:28.448Z,3748
2017-05-12T07:39:53.936Z,3676
2017-05-12T07:40:19.405Z,3588
2017-05-12T07:40:44.872Z,3508
2017-05-12T07:41:10.335Z,3480
2017-05-12T07:41:35.827Z,3432
2017-05-12T07:42:01.302Z,3388
2017-05-12T07:42:26.787Z,3336
2017-05-12T07:42:52.256Z,3196
2017-05-12T07:43:17.755Z,3096
2017-05-12T07:43:43.232Z,3060
2017-05-12T07:44:08.705Z,3048
2017-05-12T07:44:34.198Z,3068
2017-05-12T07:44:59.671Z,3120
2017-05-12T07:45:25.165Z,3204
2017-05-12T07:45:50.681Z,3296
2017-05-12T07:46:16.173Z,3364
2017-05-12T07:46:41.644Z,3444
2017-05-12T07:47:07.137Z,3464
2017-05-12T07:47:32.636Z,3488
2017-05-12T07:47:58.091Z,3440
2017-05-12T07:48:23.572Z,3408
2017-05-12T07:48:49.059Z,3352
2017-05-12T07:49:14.547Z,3328
2017-05-12T07:49:40.042Z,3340
2017-05-12T07:50:05.531Z,3380
2017-05-12T07:50:31.025Z,3432
2017-05-12T07:50:56.482Z,3500
2017-05-12T07:51:21.970Z,3548
2017-05-12T07:51:47.452Z,3556
2017-05-12T07:52:12.916Z,3544
2017-05-12T07:52:38.390Z,3540
2017-05-12T07:53:03.862Z,3552
2017-05-12T07:53:29.364Z,3576
2017-05-12T07:53:54.846Z,3584
2017-05-12T07:54:20.337Z,3608
2017-05-12T07:54:45.823Z,3656
2017-05-12T07:55:11.289Z,3712
2017-05-12T07:55:36.750Z,3708
2017-05-12T07:56:02.212Z,3732
2017-05-12T07:56:27.693Z,3780
2017-05-12T07:56:53.158Z,3824
2017-05-12T07:57:18.668Z,3892
2017-05-12T07:57:44.182Z,3944
2017-05-12T07:58:09.635Z,3988
2017-05-12T07:58:35.117Z,4016
2017-05-12T07:59:00.615Z,4040
2017-05-12T07:59:26.049Z,4040
2017-05-12T07:59:51.524Z,4036
2017-05-12T08:00:16.997Z,4060
2017-05-12T08:00:42.488Z,4104
2017-05-12T08:01:07.970Z,4144
2017-05-12T08:01:35.136Z,4188
2017-05-12T08:02:00.610Z,4224
2017-05-12T08:02:26.109Z,4272
2017-05-12T08:02:51.549Z,4320
2017-05-12T08:03:17.043Z,4368
2017-05-12T08:03:42.535Z,4412
2017-05-12T08:04:08.008Z,4468
2017-05-12T08:04:33.503Z,4532
2017-05-12T08:04:58.971Z,4604
2017-05-12T08:05:24.445Z,4692
2017-05-12T08:05:49.906Z,4780
2017-05-12T08:06:15.373Z,4880
2017-05-12T08:06:40.848Z,4992
2017-05-12T08:07:06.345Z,5116
2017-05-12T08:07:31.806Z,5240
2017-05-12T08:07:57.306Z,5360
2017-05-12T08:08:22.761Z,5496
2017-05-12T08:08:48.234Z,5624
2017-05-12T08:09:13.706Z,5768
2017-05-12T08:09:39.185Z,5940
2017-05-12T08:10:04.674Z,6080
2017-05-12T08:10:30.179Z,6284
2017-05-12T08:10:55.663Z,6508
2017-05-12T08:11:21.160Z,6748
2017-05-12T08:11:46.622Z,6984
2017-05-12T08:12:12.119Z,7192
2017-05-12T08:12:37.610Z,7384
2017-05-12T08:13:03.088Z,7584
2017-05-12T08:13:28.579Z,7740
2017-05-12T08:13:54.059Z,7856
2017-05-12T08:14:19.530Z,7968
2017-05-12T08:14:45.010Z,8024
2017-05-12T08:15:10.494Z,8032
2017-05-12T08:15:35.949Z,8016
2017-05-12T08:16:01.424Z,7960
2017-05-12T08:16:26.898Z,7868
2017-05-12T08:16:52.352Z,7804
2017-05-12T08:17:17.845Z,7704
2017-05-12T08:17:43.316Z,7604
2017-05-12T08:18:08.821Z,7496
2017-05-12T08:18:34.282Z,7376
2017-05-12T08:18:59.777Z,7260
2017-05-12T08:19:25.251Z,7140
2017-05-12T08:19:50.735Z,7040
2017-05-12T08:20:16.225Z,6924
2017-05-12T08:20:41.696Z,6816
2017-05-12T08:21:07.203Z,6744
2017-05-12T08:21:32.680Z,6672
2017-05-12T08:21:58.161Z,6604
2017-05-12T08:22:23.654Z,6552
2017-05-12T08:22:49.133Z,6536
2017-05-12T08:23:14.676Z,6496
2017-05-12T08:23:40.096Z,6492
2017-05-12T08:24:05.557Z,6492
2017-05-12T08:24:31.033Z,6508
2017-05-12T08:24:56.535Z,6528
2017-05-12T08:25:21.997Z,6576
2017-05-12T08:25:47.466Z,6636
2017-05-12T08:26:12.940Z,6716
2017-05-12T08:26:38.407Z,6812
2017-05-12T08:27:03.883Z,6908
2017-05-12T08:27:29.375Z,6996
2017-05-12T08:27:54.877Z,7080
2017-05-12T08:28:20.318Z,7160
2017-05-12T08:28:45.793Z,7236
2017-05-12T08:29:11.284Z,7312
2017-05-12T08:29:36.783Z,7384
2017-05-12T08:30:02.277Z,7436
2017-05-12T08:30:27.773Z,7572
2017-05-12T08:30:53.241Z,7688
2017-05-12T08:31:18.732Z,7828
2017-05-12T08:31:44.217Z,7996
2017-05-12T08:32:09.697Z,8172
2017-05-12T08:32:35.218Z,8348
2017-05-12T08:33:00.686Z,8568
2017-05-12T08:33:26.146Z,8760
2017-05-12T08:33:51.620Z,8972
2017-05-12T08:34:17.124Z,9172
2017-05-12T08:34:42.628Z,9376
2017-05-12T08:35:08.120Z,9588
2017-05-12T08:35:33.620Z,9792
2017-05-12T08:35:59.096Z,9980
2017-05-12T08:36:24.557Z,10172
2017-05-12T08:36:50.050Z,10336
2017-05-12T08:37:15.510Z,10464
2017-05-12T08:37:40.966Z,10544
2017-05-12T08:38:06.475Z,10588
2017-05-12T08:38:31.967Z,10604
2017-05-12T08:38:57.447Z,10604
2017-05-12T08:39:22.928Z,10616
2017-05-12T08:39:48.416Z,10612
2017-05-12T08:40:13.909Z,10604
2017-05-12T08:40:39.367Z,10628
2017-05-12T08:41:04.863Z,10632
2017-05-12T08:41:30.332Z,10592
2017-05-12T08:41:55.839Z,10500
2017-05-12T08:42:21.289Z,10380
2017-05-12T08:42:46.757Z,10248
2017-05-12T08:43:12.247Z,10064
2017-05-12T08:43:37.724Z,9960
2017-05-12T08:44:03.212Z,9912
2017-05-12T08:44:28.681Z,9936
2017-05-12T08:44:54.140Z,9996
2017-05-12T08:45:19.630Z,10056
2017-05-12T08:45:45.138Z,10024
2017-05-12T08:46:10.650Z,9892
2017-05-12T08:46:36.102Z,9596
2017-05-12T08:47:01.559Z,9100
2017-05-12T08:47:27.015Z,8584
2017-05-12T08:47:52.491Z,8036
2017-05-12T08:49:16.249Z,6084
2017-05-12T08:49:41.713Z,5648
2017-05-12T08:50:07.181Z,5192
2017-05-12T08:50:32.666Z,5936
2017-05-12T08:50:58.162Z,6152
2017-05-12T08:51:23.644Z,5404
2017-05-12T08:51:49.116Z,5428
2017-05-12T08:52:14.622Z,5524
2017-05-12T08:52:40.146Z,4844
2017-05-12T08:53:05.590Z,5688
2017-05-12T08:53:31.099Z,6524
2017-05-12T08:53:56.583Z,7756
2017-05-12T08:54:22.071Z,7712
2017-05-12T08:54:47.533Z,7088
2017-05-12T08:55:13.128Z,7096
2017-05-12T08:55:38.601Z,7872
2017-05-12T08:56:04.100Z,7596
2017-05-12T08:56:29.577Z,7468
2017-05-12T08:56:55.139Z,8180
2017-05-12T08:57:20.612Z,8836
2017-05-12T08:57:46.129Z,9280
2017-05-12T08:58:11.563Z,9136
2017-05-12T08:58:37.188Z,8988
2017-05-12T08:59:02.594Z,8980
2017-05-12T08:59:28.473Z,8908
2017-05-12T08:59:53.988Z,8644
2017-05-12T09:00:19.494Z,8580
2017-05-12T09:00:44.965Z,8196
2017-05-12T09:01:10.433Z,7856
2017-05-12T09:01:35.912Z,7832
2017-05-12T09:02:01.634Z,8040
2017-05-12T09:02:27.092Z,8268
2017-05-12T09:02:52.742Z,8468
2017-05-12T09:03:18.615Z,8492
2017-05-12T09:03:44.088Z,7980
2017-05-12T09:04:09.589Z,7692
2017-05-12T09:04:35.083Z,7668
2017-05-12T09:05:00.597Z,7520
2017-05-12T09:05:26.066Z,7040
2017-05-12T09:05:51.559Z,6752
2017-05-12T09:06:17.004Z,6000
2017-05-12T09:06:42.483Z,5176
2017-05-12T09:07:07.970Z,5740
2017-05-12T09:07:33.459Z,6316
2017-05-12T09:07:58.939Z,6288
2017-05-12T09:08:24.388Z,5872
2017-05-12T09:08:49.881Z,5552
2017-05-12T09:09:15.387Z,5304
2017-05-12T09:09:40.892Z,5124
2017-05-12T09:10:06.354Z,4932
2017-05-12T09:10:31.847Z,4784
2017-05-12T09:10:57.351Z,4724
2017-05-12T09:11:22.844Z,4668
2017-05-12T09:11:48.376Z,4640
2017-05-12T09:12:13.879Z,4596
2017-05-12T09:12:39.406Z,4556
2017-05-12T09:13:04.825Z,4452
2017-05-12T09:13:30.319Z,4176
2017-05-12T09:13:55.827Z,3872
2017-05-12T09:14:21.302Z,3848
2017-05-12T09:14:46.790Z,3816
2017-05-12T09:15:12.268Z,3788
2017-05-12T09:15:37.767Z,3732
2017-05-12T09:16:03.253Z,3708
2017-05-12T09:16:28.739Z,3736
2017-05-12T09:16:54.233Z,3820
2017-05-12T09:17:19.668Z,3764
2017-05-12T09:17:45.147Z,3748
2017-05-12T09:18:10.643Z,4300
2017-05-12T09:18:36.113Z,4640
2017-05-12T09:19:01.572Z,4780
2017-05-12T09:19:27.066Z,4828
2017-05-12T09:19:52.514Z,4900
2017-05-12T09:20:17.995Z,5148
2017-05-12T09:20:43.490Z,5380
2017-05-12T09:21:08.982Z,5252
2017-05-12T09:21:34.430Z,4936
2017-05-12T09:21:59.889Z,5992
2017-05-12T09:22:25.408Z,6812
2017-05-12T09:22:50.897Z,7184
2017-05-12T09:23:16.403Z,7368
2017-05-12T09:23:41.870Z,7684
2017-05-12T09:24:07.308Z,8316
2017-05-12T09:24:32.779Z,8888
2017-05-12T09:24:58.236Z,9580
2017-05-12T09:25:23.722Z,10072
2017-05-12T09:25:49.182Z,10688
2017-05-12T09:26:14.663Z,11128
2017-05-12T09:26:40.112Z,11880
2017-05-12T09:27:05.594Z,12376
2017-05-12T09:27:31.111Z,12756
2017-05-12T09:27:56.602Z,12472
2017-05-12T09:28:22.060Z,11796
2017-05-12T09:28:47.522Z,11400
2017-05-12T09:29:13.012Z,10876
2017-05-12T09:29:38.488Z,10496
2017-05-12T09:30:03.981Z,9720
2017-05-12T09:30:29.458Z,9696
2017-05-12T09:30:54.934Z,9220
2017-05-12T09:31:20.391Z,8984
2017-05-12T09:31:45.879Z,9060
2017-05-12T09:32:11.473Z,9288
2017-05-12T09:32:37.038Z,9344
2017-05-12T09:33:02.497Z,9352
2017-05-12T09:33:27.966Z,9320
2017-05-12T09:33:53.464Z,9204
2017-05-12T09:34:18.926Z,9424
2017-05-12T09:34:44.423Z,9664
2017-05-12T09:35:09.907Z,9792
2017-05-12T09:35:35.407Z,10444
2017-05-12T09:36:00.901Z,10540
2017-05-12T09:36:26.384Z,10216
2017-05-12T09:36:51.853Z,9752
2017-05-12T09:37:17.365Z,9684
2017-05-12T09:37:42.856Z,10048
2017-05-12T09:38:08.322Z,10512
2017-05-12T09:38:33.812Z,10844
2017-05-12T09:38:59.283Z,10844
2017-05-12T09:39:24.774Z,10420
2017-05-12T09:39:50.247Z,10016
2017-05-12T09:40:15.738Z,10148
2017-05-12T09:40:41.223Z,10672
2017-05-12T09:41:06.704Z,11328
2017-05-12T09:41:32.196Z,12044
2017-05-12T09:41:57.662Z,12680
2017-05-12T09:42:23.151Z,12828
2017-05-12T09:42:48.639Z,13136
2017-05-12T09:43:14.116Z,13292
2017-05-12T09:43:39.610Z,13296
2017-05-12T09:44:05.081Z,13340
2017-05-12T09:44:30.560Z,13260
2017-05-12T09:44:56.048Z,13832
2017-05-12T09:45:21.514Z,14036
2017-05-12T09:45:46.997Z,13744
2017-05-12T09:46:12.497Z,14196
2017-05-12T09:46:37.962Z,14272
2017-05-12T09:47:03.471Z,14244
2017-05-12T09:47:28.922Z,14212
2017-05-12T09:47:54.411Z,13940
2017-05-12T09:48:19.887Z,13536
2017-05-12T09:48:45.384Z,13428
2017-05-12T09:49:10.839Z,12680
2017-05-12T09:49:36.357Z,12220
2017-05-12T09:50:01.844Z,12268
2017-05-12T09:50:27.347Z,12404
2017-05-12T09:50:52.834Z,12388
2017-05-12T09:51:18.315Z,12428
2017-05-12T09:51:43.781Z,12168
2017-05-12T09:52:09.244Z,11820
2017-05-12T09:52:34.737Z,11832
2017-05-12T09:53:00.210Z,12148
2017-05-12T09:53:25.695Z,11828
2017-05-12T09:53:51.189Z,11476
2017-05-12T09:54:16.677Z,11504
2017-05-12T09:54:42.159Z,11420
2017-05-12T09:55:07.651Z,11060
2017-05-12T09:55:33.114Z,10688
2017-05-12T09:55:58.602Z,10340
2017-05-12T09:56:24.098Z,10056
2017-05-12T09:56:49.559Z,9732
2017-05-12T09:57:15.048Z,9484
2017-05-12T09:57:40.535Z,9556
2017-05-12T09:58:06.029Z,9648
2017-05-12T09:58:31.520Z,9760
2017-05-12T09:58:57.023Z,9816
2017-05-12T09:59:22.502Z,9832
2017-05-12T09:59:48.009Z,9768
2017-05-12T10:00:13.507Z,9676
2017-05-12T10:00:38.983Z,9532
2017-05-12T10:01:04.454Z,9516
2017-05-12T10:01:29.956Z,9524
2017-05-12T10:01:55.460Z,9408
2017-05-12T10:02:20.952Z,8824
2017-05-12T10:02:46.449Z,8484
2017-05-12T10:03:11.921Z,8260
2017-05-12T10:03:37.402Z,7884
2017-05-12T10:04:02.967Z,7628
2017-05-12T10:04:28.419Z,7344
2017-05-12T10:04:53.919Z,7160
2017-05-12T10:05:19.395Z,7008
2017-05-12T10:05:44.883Z,7080
2017-05-12T10:06:10.348Z,7420
2017-05-12T10:06:35.835Z,7608
2017-05-12T10:07:01.306Z,7616
2017-05-12T10:07:26.798Z,7520
2017-05-12T10:07:52.292Z,7204
2017-05-12T10:08:17.777Z,7044
2017-05-12T10:08:43.264Z,7356
2017-05-12T10:09:08.758Z,7920
2017-05-12T10:09:34.248Z,8272
2017-05-12T10:09:59.709Z,8336
2017-05-12T10:10:25.196Z,8408
2017-05-12T10:10:50.631Z,8616
2017-05-12T10:11:16.142Z,8580
2017-05-12T10:11:41.635Z,8060
2017-05-12T10:12:07.103Z,7732
2017-05-12T10:12:32.581Z,7824
2017-05-12T10:12:58.087Z,7788
2017-05-12T10:13:23.599Z,7748
2017-05-12T10:13:49.092Z,7660
2017-05-12T10:14:14.557Z,7364
2017-05-12T10:14:40.019Z,6668
2017-05-12T10:15:05.492Z,5724
2017-05-12T10:15:30.970Z,4676
2017-05-12T10:15:56.438Z,3908
2017-05-12T10:16:21.897Z,3872
2017-05-12T10:16:47.384Z,3976
2017-05-12T10:17:12.963Z,4112
2017-05-12T10:17:38.450Z,4468
2017-05-12T10:18:03.947Z,5084
2017-05-12T10:18:29.423Z,5880
2017-05-12T10:18:54.885Z,6904
2017-05-12T10:19:20.346Z,7516
2017-05-12T10:19:45.843Z,7796
2017-05-12T10:20:11.352Z,7992
2017-05-12T10:20:36.877Z,8492
2017-05-12T10:21:02.334Z,9084
2017-05-12T10:21:27.815Z,9328
2017-05-12T10:21:53.289Z,9420
2017-05-12T10:22:18.770Z,9268
2017-05-12T10:22:44.249Z,8964
2017-05-12T10:23:09.714Z,8804
2017-05-12T10:23:35.200Z,8836